sensor_id;sensor_type;location;lat;lon;timestamp;temperature;humidity
10443;DHT22;5269;51.146;16.986;2023-02-28T00:02:45;-0.50;99.90
10443;DHT22;5269;51.146;16.986;2023-02-28T00:08:36;-0.50;99.90
10443;DHT22;5269;51.146;16.986;2023-02-28T00:14:25;-0.60;1.00
10443;DHT22;5269;51.146;16.986;2023-02-28T00:16:51;-0.50;1.00
10443;DHT22;5269;51.146;16.986;2023-02-28T00:22:42;-0.40;1.00
10443;DHT22;5269;51.146;16.986;2023-02-28T00:28:32;-0.30;99.90
10443;DHT22;5269;51.146;16.986;2023-02-28T00:34:21;-0.30;99.90
10443;DHT22;5269;51.146;16.986;2023-02-28T00:40:10;-0.30;1.00
10443;DHT22;5269;51.146;16.986;2023-02-28T00:42:38;-0.30;1.00
10443;DHT22;5269;51.146;16.986;2023-02-28T00:45:07;-0.20;1.00
10443;DHT22;5269;51.146;16.986;2023-02-28T00:47:34;-0.30;1.00
10443;DHT22;5269;51.146;16.986;2023-02-28T00:50:02;-0.40;99.90
10443;DHT22;5269;51.146;16.986;2023-02-28T00:52:29;-0.40;99.90
10443;DHT22;5269;51.146;16.986;2023-02-28T00:54:56;-0.40;99.90
10443;DHT22;5269;51.146;16.986;2023-02-28T00:57:22;-0.40;99.90
10443;DHT22;5269;51.146;16.986;2023-02-28T00:59:49;-0.30;99.90
10443;DHT22;5269;51.146;16.986;2023-02-28T01:02:17;-0.30;99.90
10443;DHT22;5269;51.146;16.986;2023-02-28T01:04:46;-0.30;99.90
10443;DHT22;5269;51.146;16.986;2023-02-28T01:07:13;-0.30;99.90
10443;DHT22;5269;51.146;16.986;2023-02-28T01:09:40;-0.20;1.00
10443;DHT22;5269;51.146;16.986;2023-02-28T01:12:07;-0.30;1.00
10443;DHT22;5269;51.146;16.986;2023-02-28T01:14:35;-0.30;1.00
10443;DHT22;5269;51.146;16.986;2023-02-28T01:17:02;-0.20;1.00
10443;DHT22;5269;51.146;16.986;2023-02-28T01:19:30;-0.30;1.00
10443;DHT22;5269;51.146;16.986;2023-02-28T01:21:57;-0.20;99.90
10443;DHT22;5269;51.146;16.986;2023-02-28T01:24:26;-0.10;99.90
10443;DHT22;5269;51.146;16.986;2023-02-28T01:26:53;-0.10;38.30
10443;DHT22;5269;51.146;16.986;2023-02-28T01:29:20;0.00;1.00
10443;DHT22;5269;51.146;16.986;2023-02-28T01:31:47;-0.10;1.00
10443;DHT22;5269;51.146;16.986;2023-02-28T01:34:14;-0.20;23.50
10443;DHT22;5269;51.146;16.986;2023-02-28T01:36:42;-0.30;99.90
10443;DHT22;5269;51.146;16.986;2023-02-28T01:39:09;-0.30;99.90
10443;DHT22;5269;51.146;16.986;2023-02-28T01:41:35;-0.20;99.90
10443;DHT22;5269;51.146;16.986;2023-02-28T01:44:05;-0.10;1.00
10443;DHT22;5269;51.146;16.986;2023-02-28T01:46:34;-0.10;1.00
10443;DHT22;5269;51.146;16.986;2023-02-28T01:49:08;-0.20;1.00
10443;DHT22;5269;51.146;16.986;2023-02-28T01:51:40;-0.20;1.00
10443;DHT22;5269;51.146;16.986;2023-02-28T01:54:15;-0.10;1.00
10443;DHT22;5269;51.146;16.986;2023-02-28T01:56:45;-0.10;1.00
10443;DHT22;5269;51.146;16.986;2023-02-28T01:59:21;-0.10;1.00
10443;DHT22;5269;51.146;16.986;2023-02-28T02:01:48;-0.10;1.00
10443;DHT22;5269;51.146;16.986;2023-02-28T02:04:16;-0.10;1.00
10443;DHT22;5269;51.146;16.986;2023-02-28T02:06:44;-0.10;99.90
10443;DHT22;5269;51.146;16.986;2023-02-28T02:09:13;-0.10;99.90
10443;DHT22;5269;51.146;16.986;2023-02-28T02:11:42;-0.20;99.90
10443;DHT22;5269;51.146;16.986;2023-02-28T02:14:37;-0.20;43.90
10443;DHT22;5269;51.146;16.986;2023-02-28T02:17:19;-0.20;99.90
10443;DHT22;5269;51.146;16.986;2023-02-28T02:26:04;-0.30;99.90
10443;DHT22;5269;51.146;16.986;2023-02-28T02:28:52;-0.30;99.90
10443;DHT22;5269;51.146;16.986;2023-02-28T02:31:48;-0.30;99.90
10443;DHT22;5269;51.146;16.986;2023-02-28T02:34:37;-0.30;99.90
10443;DHT22;5269;51.146;16.986;2023-02-28T02:37:14;-0.20;65.50
10443;DHT22;5269;51.146;16.986;2023-02-28T02:39:48;-0.20;99.90
10443;DHT22;5269;51.146;16.986;2023-02-28T02:42:21;-0.20;99.90
10443;DHT22;5269;51.146;16.986;2023-02-28T02:44:55;-0.10;99.90
10443;DHT22;5269;51.146;16.986;2023-02-28T02:47:26;-0.20;1.00
10443;DHT22;5269;51.146;16.986;2023-02-28T02:49:58;-0.10;1.00
10443;DHT22;5269;51.146;16.986;2023-02-28T02:52:31;-0.10;1.00
10443;DHT22;5269;51.146;16.986;2023-02-28T02:55:00;-0.10;1.00
10443;DHT22;5269;51.146;16.986;2023-02-28T02:57:33;-0.30;1.00
10443;DHT22;5269;51.146;16.986;2023-02-28T03:00:04;-0.30;99.90
10443;DHT22;5269;51.146;16.986;2023-02-28T03:02:35;-0.30;99.90
10443;DHT22;5269;51.146;16.986;2023-02-28T03:05:09;-0.30;99.90
10443;DHT22;5269;51.146;16.986;2023-02-28T03:07:39;-0.30;99.90
10443;DHT22;5269;51.146;16.986;2023-02-28T03:10:27;-0.30;1.00
10443;DHT22;5269;51.146;16.986;2023-02-28T03:13:05;-0.30;1.00
10443;DHT22;5269;51.146;16.986;2023-02-28T03:15:40;-0.30;1.00
10443;DHT22;5269;51.146;16.986;2023-02-28T03:18:10;-0.30;1.00
10443;DHT22;5269;51.146;16.986;2023-02-28T03:20:45;-0.30;1.00
10443;DHT22;5269;51.146;16.986;2023-02-28T03:23:18;-0.30;99.90
10443;DHT22;5269;51.146;16.986;2023-02-28T03:25:55;-0.30;99.90
10443;DHT22;5269;51.146;16.986;2023-02-28T03:28:30;-0.30;1.00
10443;DHT22;5269;51.146;16.986;2023-02-28T03:31:02;-0.30;99.90
10443;DHT22;5269;51.146;16.986;2023-02-28T03:33:34;-0.30;99.90
10443;DHT22;5269;51.146;16.986;2023-02-28T03:36:07;-0.30;1.00
10443;DHT22;5269;51.146;16.986;2023-02-28T03:38:36;-0.30;99.90
10443;DHT22;5269;51.146;16.986;2023-02-28T03:41:16;-0.30;99.90
10443;DHT22;5269;51.146;16.986;2023-02-28T03:43:49;-0.40;99.90
10443;DHT22;5269;51.146;16.986;2023-02-28T03:46:19;-0.40;99.90
10443;DHT22;5269;51.146;16.986;2023-02-28T03:48:52;-0.40;22.50
10443;DHT22;5269;51.146;16.986;2023-02-28T03:51:23;-0.40;20.20
10443;DHT22;5269;51.146;16.986;2023-02-28T03:53:52;-0.40;99.90
10443;DHT22;5269;51.146;16.986;2023-02-28T03:56:23;-0.40;99.90
10443;DHT22;5269;51.146;16.986;2023-02-28T03:58:55;-0.30;1.00
10443;DHT22;5269;51.146;16.986;2023-02-28T04:01:26;-0.40;1.00
10443;DHT22;5269;51.146;16.986;2023-02-28T04:03:53;-0.40;1.00
10443;DHT22;5269;51.146;16.986;2023-02-28T04:06:22;-0.40;1.00
10443;DHT22;5269;51.146;16.986;2023-02-28T04:08:50;-0.40;1.00
10443;DHT22;5269;51.146;16.986;2023-02-28T04:11:24;-0.30;99.90
10443;DHT22;5269;51.146;16.986;2023-02-28T04:13:54;-0.30;1.00
10443;DHT22;5269;51.146;16.986;2023-02-28T04:16:21;-0.30;1.00
10443;DHT22;5269;51.146;16.986;2023-02-28T04:18:48;-0.20;1.00
10443;DHT22;5269;51.146;16.986;2023-02-28T04:21:15;-0.20;99.90
10443;DHT22;5269;51.146;16.986;2023-02-28T04:23:47;-0.20;1.00
10443;DHT22;5269;51.146;16.986;2023-02-28T04:26:14;-0.20;1.00
10443;DHT22;5269;51.146;16.986;2023-02-28T04:28:41;-0.20;1.00
10443;DHT22;5269;51.146;16.986;2023-02-28T04:31:08;-0.20;1.00
10443;DHT22;5269;51.146;16.986;2023-02-28T04:33:36;-0.20;99.90
10443;DHT22;5269;51.146;16.986;2023-02-28T04:36:06;-0.20;1.00
10443;DHT22;5269;51.146;16.986;2023-02-28T04:38:35;-0.20;1.00
10443;DHT22;5269;51.146;16.986;2023-02-28T04:41:04;-0.20;1.00
10443;DHT22;5269;51.146;16.986;2023-02-28T04:43:31;-0.10;1.00
10443;DHT22;5269;51.146;16.986;2023-02-28T04:46:02;-0.10;1.00
10443;DHT22;5269;51.146;16.986;2023-02-28T04:48:30;-0.10;1.00
10443;DHT22;5269;51.146;16.986;2023-02-28T04:51:00;-0.10;1.00
10443;DHT22;5269;51.146;16.986;2023-02-28T04:53:27;-0.10;1.00
10443;DHT22;5269;51.146;16.986;2023-02-28T04:55:55;-0.20;1.00
10443;DHT22;5269;51.146;16.986;2023-02-28T04:58:23;-0.20;1.00
10443;DHT22;5269;51.146;16.986;2023-02-28T05:00:50;-0.20;1.00
10443;DHT22;5269;51.146;16.986;2023-02-28T05:03:16;-0.10;1.00
10443;DHT22;5269;51.146;16.986;2023-02-28T05:05:43;-0.10;1.00
10443;DHT22;5269;51.146;16.986;2023-02-28T05:08:10;-0.10;1.00
10443;DHT22;5269;51.146;16.986;2023-02-28T05:10:37;0.00;1.00
10443;DHT22;5269;51.146;16.986;2023-02-28T05:13:04;0.00;1.00
10443;DHT22;5269;51.146;16.986;2023-02-28T05:15:32;-0.10;99.90
10443;DHT22;5269;51.146;16.986;2023-02-28T05:17:59;-0.10;1.00
10443;DHT22;5269;51.146;16.986;2023-02-28T05:20:26;-0.10;1.00
10443;DHT22;5269;51.146;16.986;2023-02-28T05:22:52;-0.20;1.00
10443;DHT22;5269;51.146;16.986;2023-02-28T05:25:20;-0.20;1.00
10443;DHT22;5269;51.146;16.986;2023-02-28T05:27:48;-0.20;57.40
10443;DHT22;5269;51.146;16.986;2023-02-28T05:30:15;-0.20;99.90
10443;DHT22;5269;51.146;16.986;2023-02-28T05:32:48;-0.20;99.90
10443;DHT22;5269;51.146;16.986;2023-02-28T05:35:16;-0.20;1.00
10443;DHT22;5269;51.146;16.986;2023-02-28T05:37:43;-0.10;1.00
10443;DHT22;5269;51.146;16.986;2023-02-28T05:40:11;-0.20;1.00
10443;DHT22;5269;51.146;16.986;2023-02-28T05:42:38;-0.20;1.00
10443;DHT22;5269;51.146;16.986;2023-02-28T05:45:06;-0.20;99.90
10443;DHT22;5269;51.146;16.986;2023-02-28T05:47:39;-0.10;99.90
10443;DHT22;5269;51.146;16.986;2023-02-28T05:50:09;0.00;46.00
10443;DHT22;5269;51.146;16.986;2023-02-28T05:52:38;0.10;1.00
10443;DHT22;5269;51.146;16.986;2023-02-28T05:55:05;0.10;1.00
10443;DHT22;5269;51.146;16.986;2023-02-28T05:57:39;0.20;99.90
10443;DHT22;5269;51.146;16.986;2023-02-28T06:00:07;0.20;99.90
10443;DHT22;5269;51.146;16.986;2023-02-28T06:02:57;0.10;99.90
10443;DHT22;5269;51.146;16.986;2023-02-28T06:05:28;0.10;99.90
10443;DHT22;5269;51.146;16.986;2023-02-28T06:07:55;0.10;99.90
10443;DHT22;5269;51.146;16.986;2023-02-28T06:10:22;0.10;99.90
10443;DHT22;5269;51.146;16.986;2023-02-28T06:12:51;0.10;1.00
10443;DHT22;5269;51.146;16.986;2023-02-28T06:15:18;0.20;1.00
10443;DHT22;5269;51.146;16.986;2023-02-28T06:17:46;0.10;99.90
10443;DHT22;5269;51.146;16.986;2023-02-28T06:20:13;0.30;99.90
10443;DHT22;5269;51.146;16.986;2023-02-28T06:22:41;0.40;1.00
10443;DHT22;5269;51.146;16.986;2023-02-28T06:25:09;0.40;1.00
10443;DHT22;5269;51.146;16.986;2023-02-28T06:27:36;0.40;1.00
10443;DHT22;5269;51.146;16.986;2023-02-28T06:30:04;0.30;1.00
10443;DHT22;5269;51.146;16.986;2023-02-28T06:32:31;0.30;1.00
10443;DHT22;5269;51.146;16.986;2023-02-28T06:34:58;0.40;1.00
10443;DHT22;5269;51.146;16.986;2023-02-28T06:37:25;0.30;1.00
10443;DHT22;5269;51.146;16.986;2023-02-28T06:39:54;0.30;1.00
10443;DHT22;5269;51.146;16.986;2023-02-28T06:42:22;0.30;1.00
10443;DHT22;5269;51.146;16.986;2023-02-28T06:44:50;0.30;1.00
10443;DHT22;5269;51.146;16.986;2023-02-28T06:47:17;0.30;1.00
10443;DHT22;5269;51.146;16.986;2023-02-28T06:49:44;0.30;1.00
10443;DHT22;5269;51.146;16.986;2023-02-28T06:52:11;0.40;1.00
10443;DHT22;5269;51.146;16.986;2023-02-28T06:54:38;0.40;1.00
10443;DHT22;5269;51.146;16.986;2023-02-28T06:57:06;0.40;1.00
10443;DHT22;5269;51.146;16.986;2023-02-28T06:59:33;0.40;1.00
10443;DHT22;5269;51.146;16.986;2023-02-28T07:02:00;0.50;1.00
10443;DHT22;5269;51.146;16.986;2023-02-28T07:04:27;0.50;1.00
10443;DHT22;5269;51.146;16.986;2023-02-28T07:06:55;0.60;1.00
10443;DHT22;5269;51.146;16.986;2023-02-28T07:09:22;0.70;99.90
10443;DHT22;5269;51.146;16.986;2023-02-28T07:11:49;0.80;99.90
10443;DHT22;5269;51.146;16.986;2023-02-28T07:14:17;0.90;99.90
10443;DHT22;5269;51.146;16.986;2023-02-28T07:16:44;0.90;99.90
10443;DHT22;5269;51.146;16.986;2023-02-28T07:19:11;1.00;99.90
10443;DHT22;5269;51.146;16.986;2023-02-28T07:21:38;1.00;99.90
10443;DHT22;5269;51.146;16.986;2023-02-28T07:24:05;1.10;99.90
10443;DHT22;5269;51.146;16.986;2023-02-28T07:26:32;1.10;99.90
10443;DHT22;5269;51.146;16.986;2023-02-28T07:29:00;1.10;59.20
10443;DHT22;5269;51.146;16.986;2023-02-28T07:31:30;1.20;1.00
10443;DHT22;5269;51.146;16.986;2023-02-28T07:33:56;1.20;1.00
10443;DHT22;5269;51.146;16.986;2023-02-28T07:36:24;1.30;1.00
10443;DHT22;5269;51.146;16.986;2023-02-28T07:38:51;1.40;1.00
10443;DHT22;5269;51.146;16.986;2023-02-28T07:41:20;1.50;1.00
10443;DHT22;5269;51.146;16.986;2023-02-28T07:43:49;1.50;1.00
10443;DHT22;5269;51.146;16.986;2023-02-28T07:46:31;1.60;1.00
10443;DHT22;5269;51.146;16.986;2023-02-28T07:49:00;1.60;1.00
10443;DHT22;5269;51.146;16.986;2023-02-28T07:51:28;1.60;1.00
10443;DHT22;5269;51.146;16.986;2023-02-28T07:53:55;1.70;1.00
10443;DHT22;5269;51.146;16.986;2023-02-28T07:56:22;1.80;1.00
10443;DHT22;5269;51.146;16.986;2023-02-28T07:58:49;1.90;1.00
10443;DHT22;5269;51.146;16.986;2023-02-28T08:01:16;1.90;1.00
10443;DHT22;5269;51.146;16.986;2023-02-28T08:03:46;1.80;1.00
10443;DHT22;5269;51.146;16.986;2023-02-28T08:06:17;1.70;1.00
10443;DHT22;5269;51.146;16.986;2023-02-28T08:08:44;1.60;1.00
10443;DHT22;5269;51.146;16.986;2023-02-28T08:11:11;1.60;1.00
10443;DHT22;5269;51.146;16.986;2023-02-28T08:13:37;1.70;1.00
10443;DHT22;5269;51.146;16.986;2023-02-28T08:16:05;1.80;1.00
10443;DHT22;5269;51.146;16.986;2023-02-28T08:18:32;1.90;1.00
10443;DHT22;5269;51.146;16.986;2023-02-28T08:21:06;2.00;1.00
10443;DHT22;5269;51.146;16.986;2023-02-28T08:23:32;2.10;1.00
10443;DHT22;5269;51.146;16.986;2023-02-28T08:26:00;2.00;1.00
10443;DHT22;5269;51.146;16.986;2023-02-28T08:28:27;2.10;1.00
10443;DHT22;5269;51.146;16.986;2023-02-28T08:30:55;2.10;1.00
10443;DHT22;5269;51.146;16.986;2023-02-28T08:33:22;2.10;1.00
10443;DHT22;5269;51.146;16.986;2023-02-28T08:35:52;2.10;1.00
10443;DHT22;5269;51.146;16.986;2023-02-28T08:38:21;2.00;1.00
10443;DHT22;5269;51.146;16.986;2023-02-28T08:40:48;2.10;1.00
10443;DHT22;5269;51.146;16.986;2023-02-28T08:43:15;2.10;1.00
10443;DHT22;5269;51.146;16.986;2023-02-28T08:45:42;2.00;1.00
10443;DHT22;5269;51.146;16.986;2023-02-28T08:48:08;2.00;1.00
10443;DHT22;5269;51.146;16.986;2023-02-28T08:50:35;2.10;1.00
10443;DHT22;5269;51.146;16.986;2023-02-28T08:53:02;2.00;1.00
10443;DHT22;5269;51.146;16.986;2023-02-28T08:55:30;2.10;1.00
10443;DHT22;5269;51.146;16.986;2023-02-28T08:57:57;2.20;1.00
10443;DHT22;5269;51.146;16.986;2023-02-28T09:00:24;2.20;1.00
10443;DHT22;5269;51.146;16.986;2023-02-28T09:02:51;2.30;1.00
10443;DHT22;5269;51.146;16.986;2023-02-28T09:05:18;2.30;1.00
10443;DHT22;5269;51.146;16.986;2023-02-28T09:07:49;2.40;1.00
10443;DHT22;5269;51.146;16.986;2023-02-28T09:10:16;2.60;1.00
10443;DHT22;5269;51.146;16.986;2023-02-28T09:12:44;2.80;1.00
10443;DHT22;5269;51.146;16.986;2023-02-28T09:15:12;2.90;1.00
10443;DHT22;5269;51.146;16.986;2023-02-28T09:17:39;3.00;1.00
10443;DHT22;5269;51.146;16.986;2023-02-28T09:20:07;3.10;1.00
10443;DHT22;5269;51.146;16.986;2023-02-28T09:22:34;3.30;1.00
10443;DHT22;5269;51.146;16.986;2023-02-28T09:25:01;3.40;1.00
10443;DHT22;5269;51.146;16.986;2023-02-28T09:27:28;3.50;1.00
10443;DHT22;5269;51.146;16.986;2023-02-28T09:29:56;3.40;1.00
10443;DHT22;5269;51.146;16.986;2023-02-28T09:32:23;3.40;1.00
10443;DHT22;5269;51.146;16.986;2023-02-28T09:34:50;3.50;1.00
10443;DHT22;5269;51.146;16.986;2023-02-28T09:37:17;3.40;1.00
10443;DHT22;5269;51.146;16.986;2023-02-28T09:39:44;3.40;1.00
10443;DHT22;5269;51.146;16.986;2023-02-28T09:42:18;3.50;1.00
10443;DHT22;5269;51.146;16.986;2023-02-28T09:44:48;3.30;1.00
10443;DHT22;5269;51.146;16.986;2023-02-28T09:47:25;3.10;1.00
10443;DHT22;5269;51.146;16.986;2023-02-28T09:49:55;2.90;1.00
10443;DHT22;5269;51.146;16.986;2023-02-28T09:52:28;3.10;1.00
10443;DHT22;5269;51.146;16.986;2023-02-28T09:54:58;3.40;1.00
10443;DHT22;5269;51.146;16.986;2023-02-28T09:57:32;3.40;1.00
10443;DHT22;5269;51.146;16.986;2023-02-28T10:00:06;3.70;1.00
10443;DHT22;5269;51.146;16.986;2023-02-28T10:02:54;3.80;1.00
10443;DHT22;5269;51.146;16.986;2023-02-28T10:05:26;3.90;1.00
10443;DHT22;5269;51.146;16.986;2023-02-28T10:08:05;3.90;1.00
10443;DHT22;5269;51.146;16.986;2023-02-28T10:10:37;3.60;1.00
10443;DHT22;5269;51.146;16.986;2023-02-28T10:13:14;3.60;1.00
10443;DHT22;5269;51.146;16.986;2023-02-28T10:15:42;3.60;1.00
10443;DHT22;5269;51.146;16.986;2023-02-28T10:18:16;3.80;1.00
10443;DHT22;5269;51.146;16.986;2023-02-28T10:20:47;3.80;1.00
10443;DHT22;5269;51.146;16.986;2023-02-28T10:23:22;3.80;1.00
10443;DHT22;5269;51.146;16.986;2023-02-28T10:25:54;3.90;1.00
10443;DHT22;5269;51.146;16.986;2023-02-28T10:28:21;3.90;1.00
10443;DHT22;5269;51.146;16.986;2023-02-28T10:30:50;3.70;1.00
10443;DHT22;5269;51.146;16.986;2023-02-28T10:33:22;3.30;1.00
10443;DHT22;5269;51.146;16.986;2023-02-28T10:35:50;3.30;1.00
10443;DHT22;5269;51.146;16.986;2023-02-28T10:38:19;3.40;1.00
10443;DHT22;5269;51.146;16.986;2023-02-28T10:40:46;2.90;1.00
10443;DHT22;5269;51.146;16.986;2023-02-28T10:43:20;3.10;1.00
10443;DHT22;5269;51.146;16.986;2023-02-28T10:45:59;3.40;1.00
10443;DHT22;5269;51.146;16.986;2023-02-28T10:48:34;3.70;1.00
10443;DHT22;5269;51.146;16.986;2023-02-28T10:51:04;4.00;1.00
10443;DHT22;5269;51.146;16.986;2023-02-28T10:53:34;4.10;1.00
10443;DHT22;5269;51.146;16.986;2023-02-28T10:56:04;4.00;1.00
10443;DHT22;5269;51.146;16.986;2023-02-28T10:58:46;4.00;1.00
10443;DHT22;5269;51.146;16.986;2023-02-28T11:01:16;3.80;1.00
10443;DHT22;5269;51.146;16.986;2023-02-28T11:03:44;3.10;1.00
10443;DHT22;5269;51.146;16.986;2023-02-28T11:06:16;3.10;1.00
10443;DHT22;5269;51.146;16.986;2023-02-28T11:08:45;3.20;1.00
10443;DHT22;5269;51.146;16.986;2023-02-28T11:11:14;3.20;1.00
10443;DHT22;5269;51.146;16.986;2023-02-28T11:13:43;3.40;1.00
10443;DHT22;5269;51.146;16.986;2023-02-28T11:16:12;3.70;1.00
10443;DHT22;5269;51.146;16.986;2023-02-28T11:18:44;3.90;1.00
10443;DHT22;5269;51.146;16.986;2023-02-28T11:21:18;4.20;1.00
10443;DHT22;5269;51.146;16.986;2023-02-28T11:23:46;4.30;1.00
10443;DHT22;5269;51.146;16.986;2023-02-28T11:26:14;4.60;1.00
10443;DHT22;5269;51.146;16.986;2023-02-28T11:28:42;4.60;1.00
10443;DHT22;5269;51.146;16.986;2023-02-28T11:31:17;4.00;1.00
10443;DHT22;5269;51.146;16.986;2023-02-28T11:33:47;4.10;1.00
10443;DHT22;5269;51.146;16.986;2023-02-28T11:36:18;4.40;1.00
10443;DHT22;5269;51.146;16.986;2023-02-28T11:38:46;4.70;1.00
10443;DHT22;5269;51.146;16.986;2023-02-28T11:41:22;4.80;1.00
10443;DHT22;5269;51.146;16.986;2023-02-28T11:44:05;4.80;1.00
10443;DHT22;5269;51.146;16.986;2023-02-28T11:46:39;4.80;1.00
10443;DHT22;5269;51.146;16.986;2023-02-28T11:49:18;4.80;1.00
10443;DHT22;5269;51.146;16.986;2023-02-28T11:51:51;4.90;1.00
10443;DHT22;5269;51.146;16.986;2023-02-28T11:54:39;4.70;1.00
10443;DHT22;5269;51.146;16.986;2023-02-28T11:57:20;4.80;1.00
10443;DHT22;5269;51.146;16.986;2023-02-28T11:59:57;5.00;1.00
10443;DHT22;5269;51.146;16.986;2023-02-28T12:02:29;5.10;1.00
10443;DHT22;5269;51.146;16.986;2023-02-28T12:05:10;5.10;1.00
10443;DHT22;5269;51.146;16.986;2023-02-28T12:07:47;4.20;1.00
10443;DHT22;5269;51.146;16.986;2023-02-28T12:10:21;4.20;1.00
10443;DHT22;5269;51.146;16.986;2023-02-28T12:13:01;4.40;1.00
10443;DHT22;5269;51.146;16.986;2023-02-28T12:18:35;4.80;1.00
10443;DHT22;5269;51.146;16.986;2023-02-28T12:21:13;4.90;1.00
10443;DHT22;5269;51.146;16.986;2023-02-28T12:23:58;4.90;1.00
10443;DHT22;5269;51.146;16.986;2023-02-28T12:26:34;5.10;1.00
10443;DHT22;5269;51.146;16.986;2023-02-28T12:29:10;4.90;1.00
10443;DHT22;5269;51.146;16.986;2023-02-28T12:31:42;4.90;1.00
10443;DHT22;5269;51.146;16.986;2023-02-28T12:34:15;4.80;1.00
10443;DHT22;5269;51.146;16.986;2023-02-28T12:36:45;4.90;1.00
10443;DHT22;5269;51.146;16.986;2023-02-28T12:39:17;4.70;1.00
10443;DHT22;5269;51.146;16.986;2023-02-28T12:41:49;4.70;1.00
10443;DHT22;5269;51.146;16.986;2023-02-28T12:44:21;4.70;1.00
10443;DHT22;5269;51.146;16.986;2023-02-28T12:46:51;4.70;1.00
10443;DHT22;5269;51.146;16.986;2023-02-28T12:49:23;4.60;1.00
10443;DHT22;5269;51.146;16.986;2023-02-28T12:51:53;4.70;1.00
10443;DHT22;5269;51.146;16.986;2023-02-28T12:54:26;4.70;1.00
10443;DHT22;5269;51.146;16.986;2023-02-28T12:57:02;4.80;1.00
10443;DHT22;5269;51.146;16.986;2023-02-28T12:59:37;4.80;1.00
10443;DHT22;5269;51.146;16.986;2023-02-28T13:02:45;4.80;1.00
10443;DHT22;5269;51.146;16.986;2023-02-28T13:05:30;4.90;1.00
10443;DHT22;5269;51.146;16.986;2023-02-28T13:08:26;4.60;1.00
10443;DHT22;5269;51.146;16.986;2023-02-28T13:11:00;4.70;1.00
10443;DHT22;5269;51.146;16.986;2023-02-28T13:13:28;4.70;1.00
10443;DHT22;5269;51.146;16.986;2023-02-28T13:16:04;4.70;1.00
10443;DHT22;5269;51.146;16.986;2023-02-28T13:18:34;4.70;1.00
10443;DHT22;5269;51.146;16.986;2023-02-28T13:21:03;4.70;1.00
10443;DHT22;5269;51.146;16.986;2023-02-28T13:23:58;4.60;1.00
10443;DHT22;5269;51.146;16.986;2023-02-28T13:29:32;4.90;1.00
10443;DHT22;5269;51.146;16.986;2023-02-28T13:32:29;4.90;1.00
10443;DHT22;5269;51.146;16.986;2023-02-28T13:38:32;5.00;1.00
10443;DHT22;5269;51.146;16.986;2023-02-28T13:41:41;5.10;1.00
10443;DHT22;5269;51.146;16.986;2023-02-28T13:44:09;5.20;1.00
10443;DHT22;5269;51.146;16.986;2023-02-28T13:47:19;5.20;1.00
10443;DHT22;5269;51.146;16.986;2023-02-28T13:49:48;5.10;1.00
10443;DHT22;5269;51.146;16.986;2023-02-28T13:52:20;5.10;1.00
10443;DHT22;5269;51.146;16.986;2023-02-28T13:54:59;5.20;1.00
10443;DHT22;5269;51.146;16.986;2023-02-28T13:57:40;5.10;1.00
10443;DHT22;5269;51.146;16.986;2023-02-28T14:00:19;5.00;1.00
10443;DHT22;5269;51.146;16.986;2023-02-28T14:03:07;5.00;1.00
10443;DHT22;5269;51.146;16.986;2023-02-28T14:05:37;4.50;1.00
10443;DHT22;5269;51.146;16.986;2023-02-28T14:08:07;4.70;1.00
10443;DHT22;5269;51.146;16.986;2023-02-28T14:10:44;4.70;1.00
10443;DHT22;5269;51.146;16.986;2023-02-28T14:13:40;4.80;1.00
10443;DHT22;5269;51.146;16.986;2023-02-28T14:16:11;4.70;1.00
10443;DHT22;5269;51.146;16.986;2023-02-28T14:18:48;4.50;1.00
10443;DHT22;5269;51.146;16.986;2023-02-28T14:21:23;4.40;1.00
10443;DHT22;5269;51.146;16.986;2023-02-28T14:27:11;4.60;1.00
10443;DHT22;5269;51.146;16.986;2023-02-28T14:32:45;4.50;1.00
10443;DHT22;5269;51.146;16.986;2023-02-28T14:35:22;4.60;1.00
10443;DHT22;5269;51.146;16.986;2023-02-28T14:37:54;4.70;1.00
10443;DHT22;5269;51.146;16.986;2023-02-28T14:40:25;4.50;1.00
10443;DHT22;5269;51.146;16.986;2023-02-28T14:42:56;4.50;1.00
10443;DHT22;5269;51.146;16.986;2023-02-28T14:45:24;4.20;1.00
10443;DHT22;5269;51.146;16.986;2023-02-28T14:47:52;4.10;1.00
10443;DHT22;5269;51.146;16.986;2023-02-28T14:50:20;4.10;1.00
10443;DHT22;5269;51.146;16.986;2023-02-28T14:52:50;4.30;1.00
10443;DHT22;5269;51.146;16.986;2023-02-28T14:55:19;4.50;1.00
10443;DHT22;5269;51.146;16.986;2023-02-28T14:57:53;4.40;1.00
10443;DHT22;5269;51.146;16.986;2023-02-28T15:00:25;4.50;1.00
10443;DHT22;5269;51.146;16.986;2023-02-28T15:02:53;4.60;1.00
10443;DHT22;5269;51.146;16.986;2023-02-28T15:05:26;4.60;1.00
10443;DHT22;5269;51.146;16.986;2023-02-28T15:08:09;4.50;1.00
10443;DHT22;5269;51.146;16.986;2023-02-28T15:10:37;4.50;1.00
10443;DHT22;5269;51.146;16.986;2023-02-28T15:13:07;4.60;1.00
10443;DHT22;5269;51.146;16.986;2023-02-28T15:15:44;4.60;1.00
10443;DHT22;5269;51.146;16.986;2023-02-28T15:18:19;4.90;1.00
10443;DHT22;5269;51.146;16.986;2023-02-28T15:20:48;4.90;1.00
10443;DHT22;5269;51.146;16.986;2023-02-28T15:23:17;4.90;1.00
10443;DHT22;5269;51.146;16.986;2023-02-28T15:25:45;4.90;1.00
10443;DHT22;5269;51.146;16.986;2023-02-28T15:28:15;4.80;1.00
10443;DHT22;5269;51.146;16.986;2023-02-28T15:30:53;4.80;1.00
10443;DHT22;5269;51.146;16.986;2023-02-28T15:33:22;4.70;1.00
10443;DHT22;5269;51.146;16.986;2023-02-28T15:36:15;4.50;1.00
10443;DHT22;5269;51.146;16.986;2023-02-28T15:38:44;4.30;1.00
10443;DHT22;5269;51.146;16.986;2023-02-28T15:41:25;4.20;1.00
10443;DHT22;5269;51.146;16.986;2023-02-28T15:44:17;4.20;1.00
10443;DHT22;5269;51.146;16.986;2023-02-28T15:46:55;4.10;1.00
10443;DHT22;5269;51.146;16.986;2023-02-28T15:49:23;4.00;1.00
10443;DHT22;5269;51.146;16.986;2023-02-28T15:51:52;4.00;1.00
10443;DHT22;5269;51.146;16.986;2023-02-28T15:54:22;3.90;1.00
10443;DHT22;5269;51.146;16.986;2023-02-28T15:56:52;3.90;1.00
10443;DHT22;5269;51.146;16.986;2023-02-28T15:59:23;3.80;1.00
10443;DHT22;5269;51.146;16.986;2023-02-28T16:02:13;3.90;1.00
10443;DHT22;5269;51.146;16.986;2023-02-28T16:04:59;3.70;1.00
10443;DHT22;5269;51.146;16.986;2023-02-28T16:07:29;3.60;1.00
10443;DHT22;5269;51.146;16.986;2023-02-28T16:09:56;3.40;1.00
10443;DHT22;5269;51.146;16.986;2023-02-28T16:12:28;3.40;1.00
10443;DHT22;5269;51.146;16.986;2023-02-28T16:14:57;3.40;1.00
10443;DHT22;5269;51.146;16.986;2023-02-28T16:17:30;3.30;1.00
10443;DHT22;5269;51.146;16.986;2023-02-28T16:19:58;3.30;1.00
10443;DHT22;5269;51.146;16.986;2023-02-28T16:22:25;3.20;1.00
10443;DHT22;5269;51.146;16.986;2023-02-28T16:24:52;3.10;1.00
10443;DHT22;5269;51.146;16.986;2023-02-28T16:27:22;3.00;1.00
10443;DHT22;5269;51.146;16.986;2023-02-28T16:29:51;3.00;1.00
10443;DHT22;5269;51.146;16.986;2023-02-28T16:32:19;2.80;1.00
10443;DHT22;5269;51.146;16.986;2023-02-28T16:34:47;2.70;1.00
10443;DHT22;5269;51.146;16.986;2023-02-28T16:37:15;2.60;1.00
10443;DHT22;5269;51.146;16.986;2023-02-28T16:39:44;2.60;1.00
10443;DHT22;5269;51.146;16.986;2023-02-28T16:42:18;2.60;1.00
10443;DHT22;5269;51.146;16.986;2023-02-28T16:44:47;2.50;1.00
10443;DHT22;5269;51.146;16.986;2023-02-28T16:47:14;2.40;1.00
10443;DHT22;5269;51.146;16.986;2023-02-28T16:49:40;2.40;1.00
10443;DHT22;5269;51.146;16.986;2023-02-28T16:52:10;2.30;1.00
10443;DHT22;5269;51.146;16.986;2023-02-28T16:54:37;2.30;1.00
10443;DHT22;5269;51.146;16.986;2023-02-28T16:57:04;2.40;1.00
10443;DHT22;5269;51.146;16.986;2023-02-28T16:59:32;2.60;1.00
10443;DHT22;5269;51.146;16.986;2023-02-28T17:01:59;2.50;1.00
10443;DHT22;5269;51.146;16.986;2023-02-28T17:04:26;2.50;1.00